createdAt,value
2018-09-29T00:00:46.443Z,7.53
2018-09-29T00:03:14.949Z,7.85
2018-09-29T00:05:43.454Z,12.03
2018-09-29T00:08:12.132Z,17.65
2018-09-29T00:10:40.562Z,7.00
2018-09-29T00:13:09.153Z,8.98
2018-09-29T00:15:37.590Z,13.30
2018-09-29T00:18:06.238Z,15.32
2018-09-29T00:20:34.716Z,7.42
2018-09-29T00:23:03.180Z,4.40
2018-09-29T00:25:31.625Z,19.15
2018-09-29T00:28:00.111Z,10.08
2018-09-29T00:30:28.599Z,14.07
2018-09-29T00:32:57.044Z,19.45
2018-09-29T00:35:25.616Z,8.85
2018-09-29T00:37:54.076Z,12.45
2018-09-29T00:40:22.592Z,5.95
2018-09-29T00:42:51.192Z,7.75
2018-09-29T00:45:19.645Z,22.37
2018-09-29T00:47:48.093Z,7.55
2018-09-29T00:50:16.588Z,10.85
2018-09-29T00:52:45.067Z,10.13
2018-09-29T00:55:13.659Z,14.45
2018-09-29T00:57:42.111Z,7.97
2018-09-29T01:00:10.536Z,8.75
2018-09-29T01:02:38.984Z,20.37
2018-09-29T01:05:07.522Z,5.58
2018-09-29T01:07:35.981Z,9.50
2018-09-29T01:10:04.474Z,11.38
2018-09-29T01:12:33.678Z,8.25
2018-09-29T01:15:02.345Z,12.28
2018-09-29T01:17:31.033Z,8.93
2018-09-29T01:19:59.518Z,13.38
2018-09-29T01:22:28.099Z,15.83
2018-09-29T01:24:56.609Z,12.60
2018-09-29T01:27:25.078Z,19.95
2018-09-29T01:29:53.532Z,14.45
2018-09-29T01:32:22.002Z,5.72
2018-09-29T01:34:50.500Z,18.55
2018-09-29T01:37:18.980Z,13.85
2018-09-29T01:39:47.445Z,18.05
2018-09-29T01:42:16.084Z,15.88
2018-09-29T01:44:44.525Z,16.40
2018-09-29T01:47:13.139Z,9.60
2018-09-29T01:49:41.620Z,12.45
2018-09-29T01:52:10.076Z,12.30
2018-09-29T01:54:38.520Z,14.28
2018-09-29T01:57:07.017Z,9.05
2018-09-29T01:59:35.461Z,14.63
2018-09-29T02:02:04.226Z,8.65
2018-09-29T02:04:32.730Z,10.05
2018-09-29T02:07:01.195Z,11.88
2018-09-29T02:09:29.649Z,8.20
2018-09-29T02:11:58.127Z,20.15
2018-09-29T02:14:26.652Z,15.65
2018-09-29T02:16:55.127Z,14.30
2018-09-29T02:19:23.621Z,10.90
2018-09-29T02:21:52.060Z,12.73
2018-09-29T02:24:20.518Z,15.38
2018-09-29T02:26:49.019Z,15.13
2018-09-29T02:29:17.476Z,6.47
2018-09-29T02:31:45.994Z,17.95
2018-09-29T02:34:14.598Z,10.45
2018-09-29T02:36:43.037Z,13.65
2018-09-29T02:39:12.581Z,8.63
2018-09-29T02:41:41.085Z,13.00
2018-09-29T02:44:10.174Z,19.02
2018-09-29T02:46:38.701Z,10.20
2018-09-29T02:49:07.201Z,18.40
2018-09-29T02:51:35.662Z,16.00
2018-09-29T02:54:04.400Z,19.30
2018-09-29T02:56:32.886Z,23.32
2018-09-29T02:59:01.409Z,14.60
2018-09-29T03:01:29.892Z,17.98
2018-09-29T03:03:58.661Z,13.78
2018-09-29T03:06:27.201Z,21.68
2018-09-29T03:08:55.769Z,16.00
2018-09-29T03:11:24.245Z,15.70
2018-09-29T03:13:52.698Z,21.62
2018-09-29T03:16:21.150Z,12.93
2018-09-29T03:18:49.676Z,40.03
2018-09-29T03:21:18.105Z,14.75
2018-09-29T03:23:46.568Z,18.32
2018-09-29T03:26:15.043Z,20.15
2018-09-29T03:28:43.496Z,13.78
2018-09-29T03:31:12.050Z,23.15
2018-09-29T03:33:40.513Z,19.85
2018-09-29T03:36:08.959Z,10.32
2018-09-29T03:38:37.396Z,23.57
2018-09-29T03:41:05.878Z,10.55
2018-09-29T03:43:34.319Z,19.48
2018-09-29T03:46:02.818Z,29.82
2018-09-29T03:48:31.311Z,17.60
2018-09-29T03:50:59.822Z,17.10
2018-09-29T03:53:28.314Z,15.15
2018-09-29T03:55:56.798Z,15.30
2018-09-29T03:58:25.250Z,20.57
2018-09-29T04:00:53.726Z,18.15
2018-09-29T04:03:22.214Z,21.33
2018-09-29T04:05:50.697Z,20.60
2018-09-29T04:08:19.145Z,20.95
2018-09-29T04:10:47.623Z,21.05
2018-09-29T04:13:16.085Z,19.82
2018-09-29T04:15:44.833Z,16.75
2018-09-29T04:18:13.313Z,17.77
2018-09-29T04:20:41.898Z,14.90
2018-09-29T04:23:10.365Z,12.60
2018-09-29T04:25:38.850Z,14.45
2018-09-29T04:28:07.310Z,17.98
2018-09-29T04:30:35.785Z,27.27
2018-09-29T04:33:04.261Z,16.05
2018-09-29T04:35:32.728Z,15.68
2018-09-29T04:38:01.179Z,16.65
2018-09-29T04:40:29.744Z,20.65
2018-09-29T04:42:58.371Z,18.77
2018-09-29T04:45:26.919Z,14.75
2018-09-29T04:47:55.397Z,11.73
2018-09-29T04:50:23.836Z,18.05
2018-09-29T04:52:52.288Z,16.23
2018-09-29T04:55:20.776Z,21.05
2018-09-29T04:57:49.243Z,23.10
2018-09-29T05:00:17.692Z,15.40
2018-09-29T05:02:46.177Z,13.50
2018-09-29T05:05:14.685Z,22.17
2018-09-29T05:07:43.183Z,15.28
2018-09-29T05:10:11.947Z,19.82
2018-09-29T05:12:40.406Z,16.27
2018-09-29T05:15:08.913Z,12.00
2018-09-29T05:17:37.395Z,17.35
2018-09-29T05:20:06.148Z,11.60
2018-09-29T05:22:34.613Z,20.23
2018-09-29T05:25:03.093Z,13.15
2018-09-29T05:27:31.526Z,15.80
2018-09-29T05:30:00.018Z,22.35
2018-09-29T05:32:28.695Z,14.35
2018-09-29T05:34:57.162Z,22.80
2018-09-29T05:37:25.640Z,12.35
2018-09-29T05:39:54.119Z,11.97
2018-09-29T05:42:22.580Z,12.55
2018-09-29T05:44:51.030Z,15.32
2018-09-29T05:47:19.501Z,11.83
2018-09-29T05:49:47.961Z,17.92
2018-09-29T05:52:16.513Z,15.58
2018-09-29T05:54:44.982Z,21.37
2018-09-29T05:57:13.441Z,17.37
2018-09-29T05:59:41.918Z,15.72
2018-09-29T06:02:10.415Z,18.00
2018-09-29T06:04:38.919Z,20.10
2018-09-29T06:07:07.632Z,19.25
2018-09-29T06:09:36.020Z,34.83
2018-09-29T06:12:04.466Z,31.62
2018-09-29T06:14:32.929Z,33.45
2018-09-29T06:17:01.428Z,41.85
2018-09-29T06:19:29.975Z,51.30
2018-09-29T06:21:58.452Z,45.15
2018-09-29T06:24:26.943Z,47.60
2018-09-29T06:26:55.399Z,49.58
2018-09-29T06:29:23.869Z,43.60
2018-09-29T06:31:52.351Z,47.95
2018-09-29T06:34:20.875Z,27.95
2018-09-29T06:36:49.334Z,30.00
2018-09-29T06:39:17.807Z,9.78
2018-09-29T06:41:46.292Z,15.55
2018-09-29T06:44:14.733Z,9.95
2018-09-29T06:46:43.273Z,19.10
2018-09-29T06:49:11.865Z,9.68
2018-09-29T06:51:40.322Z,9.03
2018-09-29T06:54:08.780Z,6.30
2018-09-29T06:56:37.245Z,5.95
2018-09-29T06:59:05.922Z,9.35
2018-09-29T07:01:34.424Z,8.03
2018-09-29T07:04:02.907Z,9.23
2018-09-29T07:06:31.400Z,5.37
2018-09-29T07:08:59.986Z,16.97
2018-09-29T07:11:28.467Z,6.25
2018-09-29T07:13:56.919Z,6.93
2018-09-29T07:16:25.417Z,8.20
2018-09-29T07:18:53.864Z,17.23
2018-09-29T07:21:22.360Z,9.73
2018-09-29T07:23:50.868Z,4.80
2018-09-29T07:26:19.434Z,7.63
2018-09-29T07:28:47.896Z,6.80
2018-09-29T07:31:16.436Z,6.93
2018-09-29T07:33:44.853Z,10.27
2018-09-29T07:36:13.329Z,8.97
2018-09-29T07:38:41.838Z,11.67
2018-09-29T07:41:10.372Z,8.90
2018-09-29T07:43:39.451Z,7.80
2018-09-29T07:46:08.227Z,14.13
2018-09-29T07:48:36.744Z,5.40
2018-09-29T07:51:05.509Z,12.67
2018-09-29T07:53:33.990Z,36.73
2018-09-29T07:56:02.519Z,4.33
2018-09-29T07:58:30.945Z,7.33
2018-09-29T08:00:59.454Z,15.00
2018-09-29T08:03:27.922Z,7.50
2018-09-29T08:05:56.436Z,15.20
2018-09-29T08:08:25.072Z,12.50
2018-09-29T08:10:53.525Z,3.87
2018-09-29T08:13:22.004Z,10.20
2018-09-29T08:15:50.490Z,8.83
2018-09-29T08:18:18.935Z,7.73
2018-09-29T08:20:47.386Z,7.53
2018-09-29T08:23:15.885Z,7.07
2018-09-29T08:25:45.604Z,7.43
2018-09-29T08:28:14.115Z,9.03
2018-09-29T08:30:42.637Z,11.93
2018-09-29T08:33:11.691Z,11.17
2018-09-29T08:35:40.149Z,7.73
2018-09-29T08:38:08.731Z,15.67
2018-09-29T08:40:37.216Z,10.10
2018-09-29T08:43:05.707Z,8.10
2018-09-29T08:45:34.203Z,11.27
2018-09-29T08:48:02.656Z,5.20
2018-09-29T08:50:31.233Z,16.73
2018-09-29T08:52:59.703Z,13.30
2018-09-29T08:55:28.296Z,8.30
2018-09-29T08:57:57.087Z,7.93
2018-09-29T09:00:25.593Z,11.97
2018-09-29T09:02:54.073Z,15.83
2018-09-29T09:05:22.621Z,8.93
2018-09-29T09:07:51.235Z,9.63
2018-09-29T09:10:19.721Z,6.90
2018-09-29T09:12:48.190Z,13.87
2018-09-29T09:15:16.697Z,7.77
2018-09-29T09:17:45.183Z,13.43
2018-09-29T09:20:13.642Z,17.07
2018-09-29T09:22:42.136Z,6.37
2018-09-29T09:25:10.652Z,3.57
2018-09-29T09:27:39.126Z,8.97
2018-09-29T09:30:07.721Z,7.90
2018-09-29T09:32:36.167Z,9.27
2018-09-29T09:35:04.844Z,3.03
2018-09-29T09:37:33.330Z,4.80
2018-09-29T09:40:01.829Z,6.27
2018-09-29T09:42:30.498Z,11.97
2018-09-29T09:44:58.979Z,3.33
2018-09-29T09:47:27.506Z,5.00
2018-09-29T09:49:55.954Z,12.90
2018-09-29T09:52:24.458Z,8.40
2018-09-29T09:54:53.006Z,3.83
2018-09-29T09:57:21.484Z,6.67
2018-09-29T09:59:50.096Z,1.90
2018-09-29T10:02:23.977Z,4.83
2018-09-29T10:04:52.477Z,3.73
2018-09-29T10:07:20.935Z,11.13
2018-09-29T10:09:49.422Z,7.13
2018-09-29T10:12:17.916Z,4.10
2018-09-29T10:14:46.387Z,9.77
2018-09-29T10:17:14.870Z,15.33
2018-09-29T10:19:43.349Z,7.93
2018-09-29T10:22:11.857Z,3.50
2018-09-29T10:24:40.361Z,3.47
2018-09-29T10:27:08.864Z,5.90
2018-09-29T10:29:37.323Z,7.60
2018-09-29T10:32:05.990Z,2.80
2018-09-29T10:34:34.478Z,4.23
2018-09-29T10:37:02.957Z,3.97
2018-09-29T10:39:31.419Z,2.70
2018-09-29T10:41:59.893Z,3.60
2018-09-29T10:44:28.368Z,6.27
2018-09-29T10:46:56.952Z,22.43
2018-09-29T10:49:25.543Z,5.73
2018-09-29T10:51:54.019Z,6.63
2018-09-29T10:54:22.492Z,6.07
2018-09-29T10:56:50.989Z,6.27
2018-09-29T10:59:19.786Z,6.10
2018-09-29T11:01:48.332Z,3.13
2018-09-29T11:04:16.848Z,27.77
2018-09-29T11:06:45.392Z,3.37
2018-09-29T11:09:14.099Z,3.90
2018-09-29T11:11:42.815Z,4.70
2018-09-29T11:14:11.309Z,10.90
2018-09-29T11:16:39.888Z,5.60
2018-09-29T11:19:08.384Z,8.73
2018-09-29T11:21:36.843Z,9.03
2018-09-29T11:24:05.325Z,3.50
2018-09-29T11:26:33.901Z,10.07
2018-09-29T11:29:02.358Z,6.83
2018-09-29T11:31:30.825Z,4.93
2018-09-29T11:33:59.453Z,2.50
2018-09-29T11:36:27.899Z,5.73
2018-09-29T11:38:56.358Z,6.33
2018-09-29T11:41:24.823Z,2.80
2018-09-29T11:43:53.444Z,2.93
2018-09-29T11:46:21.924Z,1.70
2018-09-29T11:48:50.400Z,4.23
2018-09-29T11:51:18.861Z,2.07
2018-09-29T11:53:47.327Z,2.00
2018-09-29T11:56:15.862Z,3.03
2018-09-29T11:58:44.309Z,2.87
2018-09-29T12:01:12.798Z,10.40
2018-09-29T12:03:41.344Z,9.10
2018-09-29T12:06:09.829Z,3.80
2018-09-29T12:08:38.341Z,4.33
2018-09-29T12:11:07.220Z,1.43
2018-09-29T12:13:35.668Z,6.33
2018-09-29T12:16:04.187Z,2.73
2018-09-29T12:18:32.747Z,4.40
2018-09-29T12:21:01.283Z,7.33
2018-09-29T12:23:29.797Z,3.77
2018-09-29T12:25:58.283Z,2.60
2018-09-29T12:28:26.781Z,4.50
2018-09-29T12:30:55.267Z,5.97
2018-09-29T12:33:23.831Z,2.90
2018-09-29T12:35:52.272Z,2.53
2018-09-29T12:38:20.723Z,2.00
2018-09-29T12:40:49.868Z,7.53
2018-09-29T12:43:18.354Z,3.70
2018-09-29T12:45:46.790Z,6.37
2018-09-29T12:48:15.448Z,1.33
2018-09-29T12:50:43.947Z,2.50
2018-09-29T12:53:12.419Z,3.23
2018-09-29T12:55:40.908Z,2.83
2018-09-29T12:58:09.374Z,5.33
2018-09-29T13:00:37.847Z,3.13
2018-09-29T13:03:06.000Z,1.80
2018-09-29T13:05:34.497Z,4.90
2018-09-29T13:08:02.947Z,4.03
2018-09-29T13:10:31.422Z,6.43
2018-09-29T13:12:59.890Z,7.60
2018-09-29T13:15:28.340Z,3.60
2018-09-29T13:17:56.867Z,2.53
2018-09-29T13:20:25.316Z,2.87
2018-09-29T13:22:53.775Z,2.10
2018-09-29T13:25:23.063Z,5.50
2018-09-29T13:27:51.536Z,2.93
2018-09-29T13:30:19.970Z,2.40
2018-09-29T13:32:48.450Z,3.07
2018-09-29T13:35:16.903Z,6.23
2018-09-29T13:37:45.377Z,5.90
2018-09-29T13:40:13.879Z,2.73
2018-09-29T13:42:42.339Z,4.50
2018-09-29T13:45:10.858Z,3.23
2018-09-29T13:47:39.415Z,5.00
2018-09-29T13:50:07.929Z,1.60
2018-09-29T13:52:36.476Z,3.00
2018-09-29T13:55:05.071Z,1.83
2018-09-29T13:57:33.672Z,2.20
2018-09-29T14:00:02.143Z,5.40
2018-09-29T14:02:31.391Z,2.30
2018-09-29T14:04:59.875Z,8.60
2018-09-29T14:07:28.333Z,4.03
2018-09-29T14:09:56.833Z,4.77
2018-09-29T14:12:25.294Z,5.33
2018-09-29T14:14:53.762Z,5.03
2018-09-29T14:17:22.225Z,4.00
2018-09-29T14:19:50.711Z,5.33
2018-09-29T14:22:19.206Z,4.73
2018-09-29T14:24:47.681Z,7.43
2018-09-29T14:27:16.139Z,7.80
2018-09-29T14:29:44.599Z,5.30
2018-09-29T14:32:13.064Z,4.77
2018-09-29T14:34:41.576Z,3.30
2018-09-29T14:37:10.107Z,2.37
2018-09-29T14:39:38.603Z,1.60
2018-09-29T14:42:07.075Z,2.60
2018-09-29T14:44:35.676Z,5.93
2018-09-29T14:47:04.223Z,3.23
2018-09-29T14:49:32.680Z,1.90
2018-09-29T14:52:01.108Z,2.70
2018-09-29T14:54:29.605Z,2.80
2018-09-29T14:56:59.409Z,3.43
2018-09-29T14:59:27.960Z,1.70
2018-09-29T15:01:56.449Z,5.10
2018-09-29T15:04:25.137Z,3.40
2018-09-29T15:06:53.928Z,4.83
2018-09-29T15:09:22.428Z,12.30
2018-09-29T15:11:50.915Z,10.80
2018-09-29T15:14:19.532Z,8.70
2018-09-29T15:16:48.100Z,7.93
2018-09-29T15:19:16.583Z,3.93
2018-09-29T15:21:45.055Z,3.30
2018-09-29T15:24:13.620Z,7.67
2018-09-29T15:26:42.067Z,4.63
2018-09-29T15:29:10.544Z,4.67
2018-09-29T15:31:39.012Z,4.27
2018-09-29T15:34:07.491Z,3.63
2018-09-29T15:36:35.960Z,9.73
2018-09-29T15:39:07.390Z,7.03
2018-09-29T15:41:35.824Z,7.77
2018-09-29T15:44:04.339Z,9.33
2018-09-29T15:46:32.816Z,7.63
2018-09-29T15:49:01.285Z,2.20
2018-09-29T15:51:29.871Z,2.47
2018-09-29T15:53:58.368Z,6.67
2018-09-29T15:56:26.824Z,6.27
2018-09-29T15:58:55.288Z,3.23
2018-09-29T16:01:23.794Z,2.97
2018-09-29T16:03:52.256Z,11.47
2018-09-29T16:06:20.895Z,3.87
2018-09-29T16:08:49.371Z,3.83
2018-09-29T16:11:17.826Z,2.30
2018-09-29T16:13:46.284Z,3.10
2018-09-29T16:16:14.784Z,5.47
2018-09-29T16:18:43.390Z,1.17
2018-09-29T16:21:11.954Z,5.73
2018-09-29T16:23:40.422Z,1.23
2018-09-29T16:26:08.900Z,2.70
2018-09-29T16:28:37.388Z,6.73
2018-09-29T16:31:06.123Z,1.50
2018-09-29T16:33:34.621Z,7.57
2018-09-29T16:36:03.110Z,1.27
2018-09-29T16:38:31.700Z,3.30
2018-09-29T16:41:00.103Z,5.97
2018-09-29T16:43:28.680Z,12.47
2018-09-29T16:45:57.183Z,5.53
2018-09-29T16:48:25.673Z,5.30
2018-09-29T16:50:54.146Z,2.60
2018-09-29T16:53:22.627Z,1.20
2018-09-29T16:55:51.155Z,2.00
2018-09-29T16:58:19.656Z,2.37
2018-09-29T17:00:48.287Z,5.50
2018-09-29T17:03:16.787Z,1.30
2018-09-29T17:05:45.258Z,2.20
2018-09-29T17:08:13.837Z,2.67
2018-09-29T17:10:42.310Z,1.73
2018-09-29T17:13:10.800Z,5.87
2018-09-29T17:15:39.305Z,8.93
2018-09-29T17:18:07.986Z,2.10
2018-09-29T17:20:36.439Z,4.55
2018-09-29T17:23:04.970Z,8.55
2018-09-29T17:25:33.435Z,3.10
2018-09-29T17:28:01.898Z,2.95
2018-09-29T17:30:30.461Z,3.20
2018-09-29T17:32:58.915Z,8.25
2018-09-29T17:35:27.748Z,4.95
2018-09-29T17:37:56.259Z,6.87
2018-09-29T17:40:24.817Z,4.75
2018-09-29T17:42:53.277Z,8.48
2018-09-29T17:45:21.883Z,6.17
2018-09-29T17:47:50.352Z,10.23
2018-09-29T17:50:18.779Z,4.55
2018-09-29T17:52:47.315Z,3.72
2018-09-29T17:55:16.223Z,2.22
2018-09-29T17:57:44.690Z,5.40
2018-09-29T18:00:13.204Z,3.77
2018-09-29T18:02:41.669Z,5.65
2018-09-29T18:05:10.173Z,11.25
2018-09-29T18:07:38.689Z,5.78
2018-09-29T18:10:07.238Z,2.47
2018-09-29T18:12:35.707Z,5.92
2018-09-29T18:15:04.737Z,5.10
2018-09-29T18:17:34.283Z,13.60
2018-09-29T18:20:02.983Z,12.55
2018-09-29T18:22:31.489Z,4.65
2018-09-29T18:24:59.965Z,8.80
2018-09-29T18:27:28.420Z,6.85
2018-09-29T18:29:56.902Z,11.68
2018-09-29T18:32:25.371Z,17.17
2018-09-29T18:34:53.866Z,10.25
2018-09-29T18:37:22.456Z,15.32
2018-09-29T18:39:50.869Z,15.05
2018-09-29T18:42:19.337Z,18.50
2018-09-29T18:44:47.885Z,15.50
2018-09-29T18:47:16.328Z,13.72
2018-09-29T18:49:44.838Z,15.05
2018-09-29T18:52:13.314Z,12.40
2018-09-29T18:54:41.790Z,19.92
2018-09-29T18:57:10.274Z,19.95
2018-09-29T18:59:38.764Z,11.90
2018-09-29T19:02:07.315Z,14.35
2018-09-29T19:04:35.803Z,21.75
2018-09-29T19:07:04.259Z,16.65
2018-09-29T19:09:32.840Z,20.60
2018-09-29T19:12:01.491Z,16.93
2018-09-29T19:14:29.937Z,13.32
2018-09-29T19:16:58.697Z,9.20
2018-09-29T19:19:27.236Z,11.15
2018-09-29T19:21:55.810Z,25.92
2018-09-29T19:24:24.260Z,15.65
2018-09-29T19:26:52.765Z,23.47
2018-09-29T19:29:21.245Z,19.35
2018-09-29T19:31:49.729Z,15.43
2018-09-29T19:34:18.248Z,14.30
2018-09-29T19:36:46.989Z,16.30
2018-09-29T19:39:15.571Z,18.82
2018-09-29T19:41:44.067Z,31.17
2018-09-29T19:44:12.574Z,23.73
2018-09-29T19:46:41.106Z,16.00
2018-09-29T19:49:09.609Z,22.75
2018-09-29T19:51:38.111Z,22.07
2018-09-29T19:54:06.608Z,16.80
2018-09-29T19:56:35.076Z,18.95
2018-09-29T19:59:03.709Z,24.85
2018-09-29T20:01:32.306Z,23.80
2018-09-29T20:04:01.081Z,29.18
2018-09-29T20:06:29.683Z,26.62
2018-09-29T20:08:58.151Z,26.77
2018-09-29T20:11:26.642Z,47.90
2018-09-29T20:13:55.176Z,30.70
2018-09-29T20:16:28.558Z,28.38
2018-09-29T20:18:57.075Z,35.08
2018-09-29T20:21:25.561Z,29.35
2018-09-29T20:23:54.046Z,28.10
2018-09-29T20:26:22.533Z,31.97
2018-09-29T20:28:51.028Z,24.35
2018-09-29T20:31:19.723Z,21.15
2018-09-29T20:33:48.309Z,21.45
2018-09-29T20:36:16.771Z,20.20
2018-09-29T20:38:45.247Z,12.47
2018-09-29T20:41:13.795Z,24.02
2018-09-29T20:43:42.291Z,16.05
2018-09-29T20:46:10.788Z,14.00
2018-09-29T20:48:39.264Z,14.95
2018-09-29T20:51:07.727Z,11.75
2018-09-29T20:53:36.753Z,19.98
2018-09-29T20:56:05.236Z,20.15
2018-09-29T20:58:33.711Z,17.15
2018-09-29T21:01:02.215Z,20.05
2018-09-29T21:03:30.708Z,24.43
2018-09-29T21:05:59.692Z,16.70
2018-09-29T21:08:28.154Z,19.62
2018-09-29T21:10:56.623Z,16.15
2018-09-29T21:13:25.272Z,19.65
2018-09-29T21:15:53.611Z,31.80
2018-09-29T21:18:22.103Z,15.95
2018-09-29T21:20:51.574Z,23.95
2018-09-29T21:23:20.044Z,16.62
2018-09-29T21:25:48.557Z,14.65
2018-09-29T21:28:17.028Z,14.38
2018-09-29T21:30:45.544Z,24.72
2018-09-29T21:33:14.056Z,20.10
2018-09-29T21:35:42.558Z,24.12
2018-09-29T21:38:11.021Z,20.65
2018-09-29T21:40:39.483Z,15.03
2018-09-29T21:43:08.004Z,18.55
2018-09-29T21:45:36.452Z,31.15
2018-09-29T21:48:05.284Z,25.45
2018-09-29T21:50:33.739Z,17.23
2018-09-29T21:53:02.215Z,20.40
2018-09-29T21:55:31.632Z,33.58
2018-09-29T21:58:00.126Z,24.27
2018-09-29T22:00:34.419Z,27.98
2018-09-29T22:03:02.887Z,35.73
2018-09-29T22:05:31.338Z,39.67
2018-09-29T22:07:59.815Z,27.22
2018-09-29T22:10:28.281Z,19.75
2018-09-29T22:12:56.723Z,27.42
2018-09-29T22:15:25.214Z,27.30
2018-09-29T22:17:53.685Z,27.15
2018-09-29T22:20:22.131Z,22.40
2018-09-29T22:22:50.624Z,25.50
2018-09-29T22:25:19.211Z,22.22
2018-09-29T22:27:47.699Z,22.55
2018-09-29T22:30:16.171Z,27.98
2018-09-29T22:32:44.640Z,26.70
2018-09-29T22:35:13.127Z,26.45
2018-09-29T22:37:41.861Z,25.70
2018-09-29T22:40:10.349Z,21.68
2018-09-29T22:42:38.804Z,32.30
2018-09-29T22:45:07.440Z,25.43
2018-09-29T22:47:35.921Z,33.42
2018-09-29T22:50:04.425Z,34.35
2018-09-29T22:52:32.878Z,32.40
2018-09-29T22:55:01.936Z,43.02
2018-09-29T22:57:30.429Z,33.10
2018-09-29T22:59:59.007Z,38.23
2018-09-29T23:02:27.457Z,41.63
2018-09-29T23:04:55.957Z,36.42
2018-09-29T23:07:24.419Z,56.60
2018-09-29T23:09:52.885Z,51.08
2018-09-29T23:12:21.366Z,70.55
2018-09-29T23:14:49.826Z,68.47
2018-09-29T23:17:18.312Z,91.70
2018-09-29T23:19:46.791Z,69.00
2018-09-29T23:22:15.275Z,73.07
2018-09-29T23:24:43.760Z,84.45
2018-09-29T23:27:12.359Z,77.75
2018-09-29T23:29:40.937Z,77.92
2018-09-29T23:32:09.381Z,66.70
2018-09-29T23:34:37.816Z,65.70
2018-09-29T23:37:06.324Z,52.45
2018-09-29T23:39:34.754Z,46.95
2018-09-29T23:42:03.264Z,66.62
2018-09-29T23:44:31.746Z,75.57
2018-09-29T23:47:00.298Z,57.50
2018-09-29T23:49:28.745Z,63.17
2018-09-29T23:51:57.237Z,61.05
2018-09-29T23:54:25.795Z,63.68
2018-09-29T23:56:54.280Z,77.37
2018-09-29T23:59:22.792Z,71.82
